Time;durP1;ratioP1;P1;durP2;ratioP2;P2;SDS_P1;SDS_P2;PMS_P1;PMS_P2;Temp;Humidity;BMP_temperature;BMP_pressure;BME280_temperature;BME280_humidity;BME280_pressure;Samples;Min_cycle;Max_cycle;Signal;HPM_P1;HPM_P2
2022/09/18 00:01:00;;;;;;;1.52;1.30;;;;;;;;;;10082396;28;20059;-53
2022/09/18 00:05:53;;;;;;;11.73;2.35;;;;;;;;;;10073376;28;20055;-53
2022/09/18 00:10:47;;;;;;;1.10;1.00;;;;;;;;;;10074823;28;20048;-51
2022/09/18 00:15:40;;;;;;;2.08;1.00;;;;;;;;;;10072122;28;20120;-52
2022/09/18 00:20:36;;;;;;;1.23;0.82;;;;;;;;;;10081556;28;20045;-49
2022/09/18 00:25:31;;;;;;;1.60;1.00;;;;;;;;;;10072179;28;20126;-49
2022/09/18 00:30:25;;;;;;;1.10;0.85;;;;;;;;;;10075905;28;20061;-48
2022/09/18 00:35:19;;;;;;;3.67;0.90;;;;;;;;;;10075799;28;20501;-49
2022/09/18 00:40:14;;;;;;;1.15;1.10;;;;;;;;;;10084185;28;20052;-52
2022/09/18 00:45:09;;;;;;;1.50;0.70;;;;;;;;;;10085097;28;20053;-52
2022/09/18 00:50:11;;;;;;;1.00;0.80;;;;;;;;;;10065706;28;20096;-52
2022/09/18 00:55:07;;;;;;;2.95;0.80;;;;;;;;;;10088013;28;20107;-51
2022/09/18 01:00:06;;;;;;;0.93;0.85;;;;;;;;;;10054113;28;20041;-51
2022/09/18 01:05:00;;;;;;;3.20;0.87;;;;;;;;;;10080136;28;20052;-51
2022/09/18 01:10:25;;;;;;;0.90;0.70;;;;;;;;;;10082609;28;20046;-53
2022/09/18 01:15:51;;;;;;;2.53;0.93;;;;;;;;;;10079763;28;20488;-52
2022/09/18 01:20:52;;;;;;;0.85;0.85;;;;;;;;;;10054028;28;20500;-51
2022/09/18 01:25:55;;;;;;;0.95;0.82;;;;;;;;;;10077541;28;20053;-50
2022/09/18 01:30:49;;;;;;;1.15;0.98;;;;;;;;;;10072486;28;20056;-52
2022/09/18 01:35:46;;;;;;;1.38;1.10;;;;;;;;;;10063822;28;20044;-50
2022/09/18 01:40:50;;;;;;;1.85;0.93;;;;;;;;;;10050453;28;20053;-53
2022/09/18 01:45:48;;;;;;;0.82;0.82;;;;;;;;;;10066228;28;20049;-51
2022/09/18 01:50:52;;;;;;;1.02;0.82;;;;;;;;;;10042760;28;20570;-50
2022/09/18 01:55:52;;;;;;;5.32;1.02;;;;;;;;;;10051919;28;20045;-52
2022/09/18 02:00:58;;;;;;;1.10;1.05;;;;;;;;;;10044105;28;20041;-53
2022/09/18 02:06:00;;;;;;;1.08;0.93;;;;;;;;;;10047958;28;20068;-52
2022/09/18 02:10:58;;;;;;;1.23;1.00;;;;;;;;;;10058850;28;20439;-48
2022/09/18 02:15:56;;;;;;;0.82;0.80;;;;;;;;;;10039752;28;20057;-51
2022/09/18 02:21:10;;;;;;;1.15;1.05;;;;;;;;;;10046698;28;20416;-52
2022/09/18 02:26:05;;;;;;;1.00;0.90;;;;;;;;;;10069769;28;20099;-52
2022/09/18 02:31:38;;;;;;;3.33;0.90;;;;;;;;;;10057050;28;20103;-48
2022/09/18 02:36:50;;;;;;;0.80;0.80;;;;;;;;;;10084232;28;20140;-51
2022/09/18 02:42:16;;;;;;;2.40;1.35;;;;;;;;;;10065986;28;20137;-52
2022/09/18 02:47:53;;;;;;;1.00;0.82;;;;;;;;;;10068042;28;20048;-50
2022/09/18 02:53:19;;;;;;;1.95;0.90;;;;;;;;;;10063062;28;20049;-52
2022/09/18 02:58:39;;;;;;;0.75;0.75;;;;;;;;;;10068379;28;20098;-52
2022/09/18 03:03:44;;;;;;;2.67;1.63;;;;;;;;;;10052936;28;20049;-53
2022/09/18 03:08:42;;;;;;;1.42;0.98;;;;;;;;;;10068442;28;20069;-51
2022/09/18 03:13:36;;;;;;;1.17;0.98;;;;;;;;;;10060344;28;20053;-51
2022/09/18 03:18:31;;;;;;;1.73;1.08;;;;;;;;;;10071856;28;20099;-51
2022/09/18 03:23:27;;;;;;;2.33;0.70;;;;;;;;;;10080701;28;20048;-50
2022/09/18 03:28:32;;;;;;;2.60;0.80;;;;;;;;;;10065402;28;20057;-49
2022/09/18 03:33:26;;;;;;;1.00;0.90;;;;;;;;;;10060766;28;20041;-50
2022/09/18 03:38:19;;;;;;;1.70;0.90;;;;;;;;;;10062156;28;20049;-49
2022/09/18 03:43:14;;;;;;;2.95;0.90;;;;;;;;;;10070815;28;20405;-52
2022/09/18 03:48:08;;;;;;;1.17;1.10;;;;;;;;;;10072057;28;20041;-53
2022/09/18 03:53:02;;;;;;;0.70;0.70;;;;;;;;;;10066268;28;20132;-50
2022/09/18 03:58:25;;;;;;;1.00;0.88;;;;;;;;;;10007140;28;20083;-52
2022/09/18 04:03:43;;;;;;;1.20;0.98;;;;;;;;;;10045672;28;20122;-51
2022/09/18 04:09:02;;;;;;;1.08;0.90;;;;;;;;;;10071386;28;20071;-52
2022/09/18 04:14:07;;;;;;;1.13;1.02;;;;;;;;;;10058773;28;20072;-51
2022/09/18 04:19:01;;;;;;;1.38;0.80;;;;;;;;;;10065435;28;20053;-48
2022/09/18 04:23:57;;;;;;;0.98;0.77;;;;;;;;;;10054304;28;20554;-53
2022/09/18 04:28:51;;;;;;;0.50;0.50;;;;;;;;;;10070891;28;20057;-52
2022/09/18 04:33:45;;;;;;;0.68;0.68;;;;;;;;;;10048673;28;20050;-51
2022/09/18 04:38:39;;;;;;;0.88;0.88;;;;;;;;;;10072104;28;20052;-49
2022/09/18 04:43:32;;;;;;;0.60;0.60;;;;;;;;;;10058855;28;20076;-52
2022/09/18 04:48:26;;;;;;;0.80;0.80;;;;;;;;;;10059754;28;20136;-52
2022/09/18 04:53:23;;;;;;;1.17;0.70;;;;;;;;;;10071026;28;20045;-50
2022/09/18 04:58:17;;;;;;;0.60;0.60;;;;;;;;;;10074043;28;20052;-51
2022/09/18 05:03:14;;;;;;;0.63;0.63;;;;;;;;;;10052972;28;20065;-49
2022/09/18 05:08:08;;;;;;;2.22;0.75;;;;;;;;;;10058490;28;20038;-51
2022/09/18 05:13:01;;;;;;;1.20;1.10;;;;;;;;;;10064600;28;20053;-51
2022/09/18 05:18:00;;;;;;;1.48;1.25;;;;;;;;;;10053421;28;20107;-51
2022/09/18 05:22:57;;;;;;;1.67;1.17;;;;;;;;;;10069613;28;20050;-53
2022/09/18 05:27:57;;;;;;;1.17;1.05;;;;;;;;;;10068601;28;20057;-52
2022/09/18 05:33:01;;;;;;;1.85;0.90;;;;;;;;;;10081645;28;20049;-52
2022/09/18 05:38:02;;;;;;;2.63;1.10;;;;;;;;;;10056273;28;20060;-51
2022/09/18 05:42:56;;;;;;;2.05;1.00;;;;;;;;;;10055593;28;20042;-53
2022/09/18 05:47:58;;;;;;;1.23;1.00;;;;;;;;;;10059501;28;20045;-53
2022/09/18 05:53:06;;;;;;;1.45;1.05;;;;;;;;;;10050406;28;20041;-52
2022/09/18 05:58:15;;;;;;;1.15;0.98;;;;;;;;;;10044552;28;20139;-53
2022/09/18 06:03:33;;;;;;;2.60;1.17;;;;;;;;;;10069044;28;20049;-53
2022/09/18 06:08:27;;;;;;;1.97;1.00;;;;;;;;;;10052261;28;20472;-53
2022/09/18 06:13:21;;;;;;;1.20;0.95;;;;;;;;;;10053480;28;21984;-49
2022/09/18 06:18:16;;;;;;;4.93;1.40;;;;;;;;;;10073611;28;20049;-50
2022/09/18 06:23:11;;;;;;;3.72;1.23;;;;;;;;;;10050881;28;20061;-50
2022/09/18 06:28:20;;;;;;;;;;;;;;;;;;10068376;28;20045;-50
2022/09/18 06:33:14;;;;;;;0.80;0.80;;;;;;;;;;10042728;28;19921;-47
2022/09/18 06:38:11;;;;;;;1.77;0.82;;;;;;;;;;10054183;28;20061;-51
2022/09/18 06:43:12;;;;;;;1.63;0.95;;;;;;;;;;10044795;28;20117;-50
2022/09/18 06:48:28;;;;;;;0.80;0.80;;;;;;;;;;10054155;28;20053;-54
2022/09/18 06:53:24;;;;;;;1.70;0.80;;;;;;;;;;10062210;28;20496;-52
2022/09/18 06:58:24;;;;;;;1.60;1.30;;;;;;;;;;10045950;28;20059;-53
2022/09/18 07:03:20;;;;;;;0.80;0.80;;;;;;;;;;10057657;28;20497;-53
2022/09/18 07:08:33;;;;;;;4.32;1.00;;;;;;;;;;10055147;28;20564;-49
2022/09/18 07:13:37;;;;;;;1.23;1.00;;;;;;;;;;10047770;28;20046;-51
2022/09/18 07:18:30;;;;;;;1.05;1.00;;;;;;;;;;10053570;28;20116;-52
2022/09/18 07:23:24;;;;;;;1.08;0.93;;;;;;;;;;10054423;28;20057;-48
2022/09/18 07:28:18;;;;;;;0.75;0.75;;;;;;;;;;10051749;28;20092;-50
2022/09/18 07:33:21;;;;;;;3.33;0.70;;;;;;;;;;10052530;28;20050;-51
2022/09/18 07:38:15;;;;;;;0.80;0.80;;;;;;;;;;10046797;28;20046;-51
2022/09/18 07:43:16;;;;;;;1.13;0.77;;;;;;;;;;10039370;28;20037;-53
2022/09/18 07:48:16;;;;;;;0.55;0.55;;;;;;;;;;10048523;28;20049;-50
2022/09/18 07:53:16;;;;;;;1.27;0.70;;;;;;;;;;10048488;28;20099;-52
2022/09/18 07:58:12;;;;;;;0.70;0.55;;;;;;;;;;10057948;28;20423;-50
2022/09/18 08:03:16;;;;;;;1.35;1.10;;;;;;;;;;10063379;28;20048;-50
2022/09/18 08:08:28;;;;;;;0.40;0.40;;;;;;;;;;10056137;28;20181;-49
2022/09/18 08:13:32;;;;;;;0.85;0.55;;;;;;;;;;10061809;28;20059;-52
2022/09/18 08:18:46;;;;;;;0.73;0.30;;;;;;;;;;10014914;28;20073;-53
2022/09/18 08:23:59;;;;;;;0.75;0.32;;;;;;;;;;10047190;28;20049;-51
2022/09/18 08:28:53;;;;;;;0.63;0.45;;;;;;;;;;10044735;28;20085;-51
2022/09/18 08:33:46;;;;;;;0.93;0.65;;;;;;;;;;10057861;28;20053;-52
2022/09/18 08:38:40;;;;;;;10.02;0.75;;;;;;;;;;10051587;28;20046;-48
2022/09/18 08:43:52;;;;;;;1.60;0.47;;;;;;;;;;10059296;28;20600;-55
2022/09/18 08:49:02;;;;;;;0.60;0.60;;;;;;;;;;10039897;28;20046;-50
2022/09/18 08:54:19;;;;;;;1.50;0.40;;;;;;;;;;10044017;28;20085;-54
2022/09/18 09:00:00;;;;;;;2.95;0.40;;;;;;;;;;10061370;28;20068;-54
2022/09/18 09:04:57;;;;;;;0.80;0.40;;;;;;;;;;10048749;28;20763;-53
2022/09/18 09:10:26;;;;;;;0.47;0.40;;;;;;;;;;10031738;28;20499;-52
2022/09/18 09:15:40;;;;;;;0.20;0.20;;;;;;;;;;10073266;28;20519;-55
2022/09/18 09:20:56;;;;;;;3.17;0.50;;;;;;;;;;10065792;28;20081;-51
2022/09/18 09:26:05;;;;;;;0.95;0.22;;;;;;;;;;10059790;28;20136;-53
2022/09/18 09:31:26;;;;;;;0.52;0.30;;;;;;;;;;10070767;28;20084;-51
2022/09/18 09:36:39;;;;;;;0.45;0.45;;;;;;;;;;10057991;28;21483;-53
2022/09/18 09:41:41;;;;;;;0.28;0.20;;;;;;;;;;10037486;28;20049;-53
2022/09/18 09:46:59;;;;;;;0.17;0.17;;;;;;;;;;10032140;28;20132;-51
2022/09/18 09:52:04;;;;;;;0.25;0.17;;;;;;;;;;10078167;28;20045;-52
2022/09/18 09:57:20;;;;;;;0.22;0.22;;;;;;;;;;10054305;28;20053;-54
2022/09/18 10:02:31;;;;;;;0.28;0.22;;;;;;;;;;10044999;28;20095;-53
2022/09/18 10:08:07;;;;;;;0.40;0.30;;;;;;;;;;10047484;28;20049;-53
2022/09/18 10:13:36;;;;;;;0.30;0.30;;;;;;;;;;9996665;28;20095;-53
2022/09/18 10:18:58;;;;;;;1.88;0.20;;;;;;;;;;10025084;28;20041;-53
2022/09/18 10:24:07;;;;;;;0.40;0.40;;;;;;;;;;10040159;28;20412;-54
2022/09/18 10:29:01;;;;;;;0.22;0.20;;;;;;;;;;10047298;28;20057;-53
2022/09/18 10:33:59;;;;;;;0.40;0.20;;;;;;;;;;10058405;28;20071;-55
2022/09/18 10:39:14;;;;;;;0.20;0.20;;;;;;;;;;10058924;28;20389;-56
2022/09/18 10:44:11;;;;;;;0.40;0.30;;;;;;;;;;10055678;28;20079;-56
2022/09/18 10:49:23;;;;;;;0.30;0.30;;;;;;;;;;10057688;28;20052;-56
2022/09/18 10:54:23;;;;;;;1.88;0.22;;;;;;;;;;10061893;28;20049;-56
2022/09/18 10:59:29;;;;;;;0.20;0.20;;;;;;;;;;10066173;28;20068;-55
2022/09/18 11:04:23;;;;;;;0.43;0.20;;;;;;;;;;10038555;28;20061;-56
2022/09/18 11:09:22;;;;;;;0.10;0.10;;;;;;;;;;10062171;28;20446;-55
2022/09/18 11:14:18;;;;;;;0.17;0.10;;;;;;;;;;10050656;28;20053;-56
2022/09/18 11:19:30;;;;;;;0.15;0.15;;;;;;;;;;10031181;28;20076;-55
2022/09/18 11:24:32;;;;;;;0.20;0.20;;;;;;;;;;10047322;28;20045;-61
2022/09/18 11:29:38;;;;;;;0.85;0.65;;;;;;;;;;10039533;28;20057;-53
2022/09/18 11:34:37;;;;;;;0.43;0.35;;;;;;;;;;10032046;28;20068;-55
2022/09/18 11:39:36;;;;;;;0.10;0.10;;;;;;;;;;10058141;28;20072;-55
2022/09/18 11:44:33;;;;;;;0.32;0.25;;;;;;;;;;10040700;28;20099;-55
2022/09/18 11:49:32;;;;;;;3.60;0.32;;;;;;;;;;10031029;28;20088;-55
2022/09/18 11:54:50;;;;;;;0.55;0.43;;;;;;;;;;10067784;28;20045;-53
2022/09/18 12:00:14;;;;;;;0.73;0.20;;;;;;;;;;10065407;28;20046;-55
2022/09/18 12:05:50;;;;;;;0.20;0.20;;;;;;;;;;10063353;28;20068;-53
2022/09/18 12:11:17;;;;;;;0.30;0.30;;;;;;;;;;10046619;28;20049;-53
2022/09/18 12:17:02;;;;;;;0.75;0.50;;;;;;;;;;10060475;28;20049;-53
2022/09/18 12:22:25;;;;;;;0.40;0.40;;;;;;;;;;10060018;28;20050;-51
2022/09/18 12:27:47;;;;;;;0.10;0.10;;;;;;;;;;10047065;28;20045;-53
2022/09/18 12:33:01;;;;;;;0.40;0.40;;;;;;;;;;10048007;28;20117;-54
2022/09/18 12:38:06;;;;;;;0.25;0.25;;;;;;;;;;10064908;28;20057;-54
2022/09/18 12:43:44;;;;;;;0.17;0.17;;;;;;;;;;10070538;28;20071;-54
2022/09/18 12:49:04;;;;;;;0.25;0.25;;;;;;;;;;9989076;28;20092;-54
2022/09/18 12:54:20;;;;;;;0.20;0.20;;;;;;;;;;10069863;28;20049;-54
2022/09/18 12:59:42;;;;;;;0.40;0.40;;;;;;;;;;10033284;28;20055;-54
2022/09/18 13:04:43;;;;;;;1.95;0.30;;;;;;;;;;10073528;28;20061;-53
2022/09/18 13:10:18;;;;;;;3.95;0.30;;;;;;;;;;10074065;28;20064;-53
2022/09/18 13:15:21;;;;;;;0.22;0.22;;;;;;;;;;10016333;28;20057;-52
2022/09/18 13:20:38;;;;;;;0.30;0.30;;;;;;;;;;10073372;28;20064;-54
2022/09/18 13:25:38;;;;;;;1.33;0.30;;;;;;;;;;10060753;28;20061;-56
2022/09/18 13:30:32;;;;;;;0.63;0.40;;;;;;;;;;10058249;28;20053;-53
2022/09/18 13:35:30;;;;;;;2.25;0.30;;;;;;;;;;10067843;28;20559;-53
2022/09/18 13:40:36;;;;;;;0.47;0.40;;;;;;;;;;10074304;28;20087;-52
2022/09/18 13:45:37;;;;;;;0.40;0.40;;;;;;;;;;10065643;28;20038;-53
2022/09/18 13:50:32;;;;;;;0.50;0.50;;;;;;;;;;10067803;28;20037;-53
2022/09/18 13:55:47;;;;;;;2.47;0.50;;;;;;;;;;10068984;28;20042;-51
2022/09/18 14:00:41;;;;;;;0.45;0.40;;;;;;;;;;10075147;28;20045;-51
2022/09/18 14:05:55;;;;;;;1.48;0.55;;;;;;;;;;10073654;28;20474;-51
2022/09/18 14:10:47;;;;;;;2.30;0.47;;;;;;;;;;10079788;28;20073;-51
2022/09/18 14:16:29;;;;;;;0.68;0.40;;;;;;;;;;10064368;28;20045;-50
2022/09/18 14:21:25;;;;;;;0.90;0.40;;;;;;;;;;10069669;28;20063;-53
2022/09/18 14:26:27;;;;;;;0.35;0.35;;;;;;;;;;10070643;28;20057;-52
2022/09/18 14:31:36;;;;;;;0.40;0.40;;;;;;;;;;10060790;28;20054;-53
2022/09/18 14:36:43;;;;;;;0.43;0.28;;;;;;;;;;10060089;28;20517;-61
2022/09/18 14:41:38;;;;;;;0.68;0.20;;;;;;;;;;10061356;28;20051;-57
2022/09/18 14:46:32;;;;;;;0.55;0.40;;;;;;;;;;10053895;28;20096;-58
2022/09/18 14:51:29;;;;;;;2.75;0.57;;;;;;;;;;10042146;28;20147;-58
2022/09/18 14:56:41;;;;;;;0.35;0.35;;;;;;;;;;10034246;28;20743;-58
2022/09/18 15:01:39;;;;;;;0.32;0.32;;;;;;;;;;10055961;28;20049;-58
2022/09/18 15:06:36;;;;;;;1.52;0.50;;;;;;;;;;10063083;28;20097;-58
2022/09/18 15:11:30;;;;;;;1.27;0.47;;;;;;;;;;10035585;28;20044;-58
2022/09/18 15:16:58;;;;;;;3.05;1.52;;;;;;;;;;10067389;28;20064;-58
2022/09/18 15:21:52;;;;;;;0.35;0.35;;;;;;;;;;10045166;28;20409;-59
2022/09/18 15:27:11;;;;;;;3.33;0.65;;;;;;;;;;10055529;28;20049;-58
2022/09/18 15:32:05;;;;;;;0.40;0.40;;;;;;;;;;10046649;28;20108;-58
2022/09/18 15:37:08;;;;;;;0.45;0.40;;;;;;;;;;10058713;28;20053;-58
2022/09/18 15:42:33;;;;;;;0.70;0.40;;;;;;;;;;10053350;28;20053;-58
2022/09/18 15:47:31;;;;;;;0.50;0.47;;;;;;;;;;10065631;28;20049;-58
2022/09/18 15:52:40;;;;;;;0.95;0.60;;;;;;;;;;10063670;28;20075;-58
2022/09/18 15:57:34;;;;;;;0.52;0.40;;;;;;;;;;10069943;28;20045;-58
2022/09/18 16:02:37;;;;;;;0.47;0.47;;;;;;;;;;10068498;28;20041;-59
2022/09/18 16:07:32;;;;;;;2.15;0.50;;;;;;;;;;10071227;28;20408;-58
2022/09/18 16:12:29;;;;;;;0.75;0.43;;;;;;;;;;10068825;28;20046;-56
2022/09/18 16:17:30;;;;;;;;;;;;;;;;;;10071945;28;20496;-55
2022/09/18 16:22:29;;;;;;;2.92;0.63;;;;;;;;;;10069918;28;20388;-58
2022/09/18 16:27:23;;;;;;;0.50;0.50;;;;;;;;;;10063760;28;20061;-60
2022/09/18 16:32:20;;;;;;;1.58;0.82;;;;;;;;;;10048096;28;20141;-57
2022/09/18 16:37:16;;;;;;;2.50;0.82;;;;;;;;;;10065983;28;20069;-53
2022/09/18 16:42:18;;;;;;;3.50;0.90;;;;;;;;;;10062222;28;20050;-59
2022/09/18 16:47:19;;;;;;;0.65;0.50;;;;;;;;;;10055549;28;20064;-59
2022/09/18 16:52:14;;;;;;;4.18;0.80;;;;;;;;;;10063287;28;20118;-57
2022/09/18 16:57:14;;;;;;;2.95;0.73;;;;;;;;;;10065012;28;20065;-58
2022/09/18 17:02:08;;;;;;;3.88;1.10;;;;;;;;;;10056699;28;20129;-58
2022/09/18 17:07:05;;;;;;;0.73;0.60;;;;;;;;;;10072656;28;20053;-59
2022/09/18 17:12:06;;;;;;;1.00;0.60;;;;;;;;;;10063256;28;20385;-59
2022/09/18 17:17:05;;;;;;;3.53;1.10;;;;;;;;;;10062845;28;20076;-58
2022/09/18 17:22:04;;;;;;;2.53;0.80;;;;;;;;;;10063351;28;20073;-58
2022/09/18 17:26:59;;;;;;;1.10;0.90;;;;;;;;;;10074451;28;20046;-58
2022/09/18 17:32:05;;;;;;;2.20;0.70;;;;;;;;;;10079223;28;20126;-57
2022/09/18 17:37:01;;;;;;;2.83;1.08;;;;;;;;;;10082059;28;20059;-57
2022/09/18 17:41:58;;;;;;;1.55;0.70;;;;;;;;;;10049782;28;20057;-58
2022/09/18 17:46:51;;;;;;;3.95;1.42;;;;;;;;;;10049967;28;20167;-61
2022/09/18 17:51:45;;;;;;;1.38;1.20;;;;;;;;;;10073649;28;20512;-68
2022/09/18 17:56:39;;;;;;;3.35;1.30;;;;;;;;;;10068364;28;20057;-68
2022/09/18 18:01:36;;;;;;;1.55;1.15;;;;;;;;;;10070472;28;20107;-66
2022/09/18 18:06:29;;;;;;;3.53;1.25;;;;;;;;;;10072214;28;20080;-66
2022/09/18 18:11:24;;;;;;;3.55;1.02;;;;;;;;;;10082514;28;20473;-65
2022/09/18 18:16:22;;;;;;;1.83;1.08;;;;;;;;;;10072496;28;20447;-65
2022/09/18 18:21:16;;;;;;;7.13;1.20;;;;;;;;;;10075682;28;20049;-65
2022/09/18 18:26:10;;;;;;;1.52;1.17;;;;;;;;;;10074860;28;20107;-64
2022/09/18 18:31:13;;;;;;;1.95;1.25;;;;;;;;;;10078898;28;20124;-63
2022/09/18 18:36:15;;;;;;;2.00;1.30;;;;;;;;;;10103452;28;20049;-63
2022/09/18 18:41:09;;;;;;;3.22;1.60;;;;;;;;;;10093547;28;20049;-63
2022/09/18 18:46:08;;;;;;;1.60;1.30;;;;;;;;;;10061065;28;20121;-66
2022/09/18 18:51:08;;;;;;;6.55;1.30;;;;;;;;;;10064589;28;20074;-66
2022/09/18 18:56:04;;;;;;;1.45;1.20;;;;;;;;;;10061599;28;20103;-69
2022/09/18 19:01:14;;;;;;;6.07;1.40;;;;;;;;;;10064301;28;20467;-68
2022/09/18 19:06:14;;;;;;;3.08;1.77;;;;;;;;;;10061855;28;20040;-68
2022/09/18 19:11:09;;;;;;;2.83;1.92;;;;;;;;;;10064941;28;20038;-68
2022/09/18 19:16:04;;;;;;;2.28;1.60;;;;;;;;;;10057636;28;20060;-68
2022/09/18 19:20:58;;;;;;;2.00;1.63;;;;;;;;;;10044758;28;20100;-68
2022/09/18 19:25:56;;;;;;;4.97;1.65;;;;;;;;;;10053450;28;20152;-66
2022/09/18 19:30:50;;;;;;;4.45;1.77;;;;;;;;;;10056373;28;20092;-68
2022/09/18 19:35:44;;;;;;;4.45;1.20;;;;;;;;;;10060936;28;20136;-68
2022/09/18 19:40:42;;;;;;;;;;;;;;;;;;10062257;28;20046;-67
2022/09/18 19:45:36;;;;;;;4.45;3.40;;;;;;;;;;10069056;28;19931;-68
2022/09/18 19:50:36;;;;;;;2.45;1.52;;;;;;;;;;10056595;28;20050;-67
2022/09/18 19:55:31;;;;;;;2.58;1.40;;;;;;;;;;10042117;28;20140;-67
2022/09/18 20:00:25;;;;;;;5.05;1.67;;;;;;;;;;10060266;28;20095;-67
2022/09/18 20:05:18;;;;;;;1.90;1.30;;;;;;;;;;10059133;28;20091;-69
2022/09/18 20:10:13;;;;;;;2.50;1.30;;;;;;;;;;10070826;28;20084;-66
2022/09/18 20:15:10;;;;;;;1.60;1.30;;;;;;;;;;10067651;28;20042;-65
2022/09/18 20:20:07;;;;;;;1.15;1.05;;;;;;;;;;10073942;28;20057;-67
2022/09/18 20:25:07;;;;;;;2.15;1.73;;;;;;;;;;10063242;28;20133;-70
2022/09/18 20:30:02;;;;;;;2.05;1.52;;;;;;;;;;10074208;28;20057;-66
2022/09/18 20:34:57;;;;;;;2.38;1.35;;;;;;;;;;10060047;28;20045;-66
2022/09/18 20:39:50;;;;;;;1.67;1.30;;;;;;;;;;10067110;28;20747;-68
2022/09/18 20:44:45;;;;;;;1.67;1.20;;;;;;;;;;10052294;28;20065;-70
2022/09/18 20:49:39;;;;;;;2.90;1.67;;;;;;;;;;10058944;28;20049;-70
2022/09/18 20:54:33;;;;;;;1.98;1.77;;;;;;;;;;10053978;28;20045;-69
2022/09/18 20:59:27;;;;;;;1.48;1.20;;;;;;;;;;10063090;28;20049;-58
2022/09/18 21:04:21;;;;;;;2.85;0.95;;;;;;;;;;10050087;28;20038;-62
2022/09/18 21:09:15;;;;;;;6.72;1.17;;;;;;;;;;10053428;28;20401;-62
2022/09/18 21:14:14;;;;;;;3.83;1.35;;;;;;;;;;10050307;28;20044;-62
2022/09/18 21:19:12;;;;;;;2.95;1.05;;;;;;;;;;10042284;28;20100;-62
2022/09/18 21:24:08;;;;;;;4.07;1.33;;;;;;;;;;10063178;28;20057;-65
2022/09/18 21:29:01;;;;;;;1.50;1.40;;;;;;;;;;10074127;28;20064;-64
2022/09/18 21:33:56;;;;;;;2.17;0.93;;;;;;;;;;10079220;28;20144;-64
2022/09/18 21:38:51;;;;;;;2.40;1.45;;;;;;;;;;10071438;28;20053;-65
2022/09/18 21:43:47;;;;;;;5.32;1.13;;;;;;;;;;10056365;28;20523;-66
2022/09/18 21:48:41;;;;;;;6.63;1.73;;;;;;;;;;10074942;28;20051;-66
2022/09/18 21:53:35;;;;;;;2.65;1.30;;;;;;;;;;10074968;28;20044;-67
2022/09/18 21:58:30;;;;;;;3.60;1.33;;;;;;;;;;10057332;28;20063;-66
2022/09/18 22:03:24;;;;;;;2.00;1.33;;;;;;;;;;10070702;28;20125;-66
2022/09/18 22:08:17;;;;;;;2.60;1.23;;;;;;;;;;10072770;28;20128;-66
2022/09/18 22:13:11;;;;;;;3.17;1.10;;;;;;;;;;10070840;28;20048;-65
2022/09/18 22:18:05;;;;;;;2.05;1.00;;;;;;;;;;10075950;28;20057;-65
2022/09/18 22:22:59;;;;;;;1.63;1.00;;;;;;;;;;10073648;28;20045;-64
2022/09/18 22:27:53;;;;;;;3.50;1.20;;;;;;;;;;10078881;28;20136;-64
2022/09/18 22:32:47;;;;;;;3.53;1.67;;;;;;;;;;10067551;28;20080;-64
2022/09/18 22:37:43;;;;;;;2.20;1.35;;;;;;;;;;10074431;28;20128;-63
2022/09/18 22:42:39;;;;;;;1.83;1.15;;;;;;;;;;10066808;28;20133;-63
2022/09/18 22:47:34;;;;;;;2.42;2.00;;;;;;;;;;10077801;28;20050;-63
2022/09/18 22:52:28;;;;;;;5.07;2.42;;;;;;;;;;10072972;28;20056;-64
2022/09/18 22:57:23;;;;;;;4.05;2.10;;;;;;;;;;10078831;28;20107;-64
2022/09/18 23:02:18;;;;;;;5.22;2.80;;;;;;;;;;10068029;28;20132;-64
2022/09/18 23:07:12;;;;;;;4.43;3.50;;;;;;;;;;10068013;28;20056;-64
2022/09/18 23:12:06;;;;;;;7.18;4.75;;;;;;;;;;10068772;28;20049;-63
2022/09/18 23:17:01;;;;;;;4.38;3.30;;;;;;;;;;10068629;28;20099;-63
2022/09/18 23:21:55;;;;;;;5.97;3.15;;;;;;;;;;10071331;28;20061;-63
2022/09/18 23:26:52;;;;;;;4.60;3.08;;;;;;;;;;10075078;28;20131;-62
2022/09/18 23:31:49;;;;;;;13.55;3.83;;;;;;;;;;10077016;28;20520;-63
2022/09/18 23:36:44;;;;;;;3.22;2.10;;;;;;;;;;10082838;28;20052;-62
2022/09/18 23:41:38;;;;;;;6.55;2.22;;;;;;;;;;10062704;28;20534;-62
2022/09/18 23:46:32;;;;;;;4.65;2.33;;;;;;;;;;10075907;28;20061;-62
2022/09/18 23:51:28;;;;;;;2.92;2.10;;;;;;;;;;10077295;28;20484;-63
2022/09/18 23:56:23;;;;;;;7.60;1.90;;;;;;;;;;10088290;28;20045;-63
